sensor_id;sensor_type;location;lat;lon;timestamp;P1;durP1;ratioP1;P2;durP2;ratioP2
20375;SDS011;10347;51.828;6.466;2023-01-24T00:02:02;16.85;;;10.93;;
20375;SDS011;10347;51.828;6.466;2023-01-24T00:04:27;16.73;;;11.00;;
20375;SDS011;10347;51.828;6.466;2023-01-24T00:06:53;13.77;;;9.52;;
20375;SDS011;10347;51.828;6.466;2023-01-24T00:09:18;14.63;;;9.55;;
20375;SDS011;10347;51.828;6.466;2023-01-24T00:11:44;16.08;;;10.80;;
20375;SDS011;10347;51.828;6.466;2023-01-24T00:14:09;17.25;;;10.73;;
20375;SDS011;10347;51.828;6.466;2023-01-24T00:16:35;21.00;;;11.23;;
20375;SDS011;10347;51.828;6.466;2023-01-24T00:19:00;14.93;;;10.13;;
20375;SDS011;10347;51.828;6.466;2023-01-24T00:21:26;14.20;;;9.52;;
20375;SDS011;10347;51.828;6.466;2023-01-24T00:23:53;17.20;;;10.98;;
20375;SDS011;10347;51.828;6.466;2023-01-24T00:26:19;17.38;;;10.43;;
20375;SDS011;10347;51.828;6.466;2023-01-24T00:28:47;16.20;;;10.48;;
20375;SDS011;10347;51.828;6.466;2023-01-24T00:31:14;16.17;;;10.60;;
20375;SDS011;10347;51.828;6.466;2023-01-24T00:33:40;17.27;;;10.65;;
20375;SDS011;10347;51.828;6.466;2023-01-24T00:36:05;15.15;;;10.00;;
20375;SDS011;10347;51.828;6.466;2023-01-24T00:38:31;15.50;;;10.65;;
20375;SDS011;10347;51.828;6.466;2023-01-24T00:40:58;15.02;;;10.38;;
20375;SDS011;10347;51.828;6.466;2023-01-24T00:43:23;15.23;;;10.32;;
20375;SDS011;10347;51.828;6.466;2023-01-24T00:45:51;16.85;;;10.98;;
20375;SDS011;10347;51.828;6.466;2023-01-24T00:48:17;18.27;;;11.20;;
20375;SDS011;10347;51.828;6.466;2023-01-24T00:50:42;14.90;;;10.02;;
20375;SDS011;10347;51.828;6.466;2023-01-24T00:53:08;18.90;;;11.60;;
20375;SDS011;10347;51.828;6.466;2023-01-24T00:55:34;16.58;;;10.55;;
20375;SDS011;10347;51.828;6.466;2023-01-24T00:58:04;17.40;;;11.48;;
20375;SDS011;10347;51.828;6.466;2023-01-24T01:00:30;17.65;;;11.75;;
20375;SDS011;10347;51.828;6.466;2023-01-24T01:02:56;16.13;;;10.88;;
20375;SDS011;10347;51.828;6.466;2023-01-24T01:05:21;18.27;;;11.90;;
20375;SDS011;10347;51.828;6.466;2023-01-24T01:07:47;17.25;;;10.60;;
20375;SDS011;10347;51.828;6.466;2023-01-24T01:10:13;17.10;;;11.15;;
20375;SDS011;10347;51.828;6.466;2023-01-24T01:12:38;16.73;;;10.65;;
20375;SDS011;10347;51.828;6.466;2023-01-24T01:15:04;17.50;;;11.40;;
20375;SDS011;10347;51.828;6.466;2023-01-24T01:17:30;19.83;;;11.73;;
20375;SDS011;10347;51.828;6.466;2023-01-24T01:19:55;18.70;;;11.50;;
20375;SDS011;10347;51.828;6.466;2023-01-24T01:22:23;17.63;;;11.50;;
20375;SDS011;10347;51.828;6.466;2023-01-24T01:24:49;18.90;;;12.50;;
20375;SDS011;10347;51.828;6.466;2023-01-24T01:27:14;18.65;;;11.93;;
20375;SDS011;10347;51.828;6.466;2023-01-24T01:29:40;15.52;;;10.38;;
20375;SDS011;10347;51.828;6.466;2023-01-24T01:32:05;16.02;;;10.57;;
20375;SDS011;10347;51.828;6.466;2023-01-24T01:34:31;17.40;;;11.93;;
20375;SDS011;10347;51.828;6.466;2023-01-24T01:36:56;18.70;;;11.15;;
20375;SDS011;10347;51.828;6.466;2023-01-24T01:39:22;17.02;;;10.85;;
20375;SDS011;10347;51.828;6.466;2023-01-24T01:41:48;17.83;;;12.23;;
20375;SDS011;10347;51.828;6.466;2023-01-24T01:47:28;15.75;;;11.43;;
20375;SDS011;10347;51.828;6.466;2023-01-24T01:52:28;18.70;;;11.93;;
20375;SDS011;10347;51.828;6.466;2023-01-24T01:54:57;19.08;;;12.40;;
20375;SDS011;10347;51.828;6.466;2023-01-24T01:57:29;16.30;;;11.05;;
20375;SDS011;10347;51.828;6.466;2023-01-24T01:59:58;18.88;;;11.60;;
20375;SDS011;10347;51.828;6.466;2023-01-24T02:02:32;18.58;;;12.10;;
20375;SDS011;10347;51.828;6.466;2023-01-24T02:05:01;17.13;;;11.55;;
20375;SDS011;10347;51.828;6.466;2023-01-24T02:07:38;17.92;;;12.15;;
20375;SDS011;10347;51.828;6.466;2023-01-24T02:10:29;16.30;;;10.57;;
20375;SDS011;10347;51.828;6.466;2023-01-24T02:13:15;16.98;;;11.68;;
20375;SDS011;10347;51.828;6.466;2023-01-24T02:15:40;16.73;;;11.13;;
20375;SDS011;10347;51.828;6.466;2023-01-24T02:18:26;17.77;;;11.50;;
20375;SDS011;10347;51.828;6.466;2023-01-24T02:20:52;15.10;;;10.50;;
20375;SDS011;10347;51.828;6.466;2023-01-24T02:23:27;16.00;;;11.10;;
20375;SDS011;10347;51.828;6.466;2023-01-24T02:31:22;17.35;;;11.40;;
20375;SDS011;10347;51.828;6.466;2023-01-24T02:33:48;18.38;;;11.70;;
20375;SDS011;10347;51.828;6.466;2023-01-24T02:38:50;16.98;;;11.20;;
20375;SDS011;10347;51.828;6.466;2023-01-24T02:41:25;16.33;;;11.15;;
20375;SDS011;10347;51.828;6.466;2023-01-24T02:43:55;17.35;;;11.18;;
20375;SDS011;10347;51.828;6.466;2023-01-24T02:46:28;16.70;;;11.07;;
20375;SDS011;10347;51.828;6.466;2023-01-24T02:48:54;19.55;;;12.20;;
20375;SDS011;10347;51.828;6.466;2023-01-24T02:51:20;16.60;;;11.25;;
20375;SDS011;10347;51.828;6.466;2023-01-24T02:54:04;17.77;;;11.52;;
20375;SDS011;10347;51.828;6.466;2023-01-24T02:56:30;17.17;;;10.85;;
20375;SDS011;10347;51.828;6.466;2023-01-24T02:59:14;15.27;;;10.50;;
20375;SDS011;10347;51.828;6.466;2023-01-24T03:01:39;14.32;;;9.68;;
20375;SDS011;10347;51.828;6.466;2023-01-24T03:04:05;15.77;;;10.77;;
20375;SDS011;10347;51.828;6.466;2023-01-24T03:06:31;17.20;;;11.55;;
20375;SDS011;10347;51.828;6.466;2023-01-24T03:08:56;15.90;;;11.18;;
20375;SDS011;10347;51.828;6.466;2023-01-24T03:11:22;17.85;;;11.23;;
20375;SDS011;10347;51.828;6.466;2023-01-24T03:13:47;14.82;;;10.55;;
20375;SDS011;10347;51.828;6.466;2023-01-24T03:16:32;18.75;;;11.70;;
20375;SDS011;10347;51.828;6.466;2023-01-24T03:19:16;16.60;;;11.27;;
20375;SDS011;10347;51.828;6.466;2023-01-24T03:22:00;15.98;;;10.77;;
20375;SDS011;10347;51.828;6.466;2023-01-24T03:24:45;18.92;;;12.52;;
20375;SDS011;10347;51.828;6.466;2023-01-24T03:27:28;16.45;;;11.18;;
20375;SDS011;10347;51.828;6.466;2023-01-24T03:30:13;16.05;;;10.77;;
20375;SDS011;10347;51.828;6.466;2023-01-24T03:32:58;18.38;;;12.23;;
20375;SDS011;10347;51.828;6.466;2023-01-24T03:35:49;19.55;;;11.65;;
20375;SDS011;10347;51.828;6.466;2023-01-24T03:38:23;19.65;;;12.02;;
20375;SDS011;10347;51.828;6.466;2023-01-24T03:41:07;16.85;;;10.77;;
20375;SDS011;10347;51.828;6.466;2023-01-24T03:43:32;15.38;;;10.57;;
20375;SDS011;10347;51.828;6.466;2023-01-24T03:45:58;16.35;;;10.35;;
20375;SDS011;10347;51.828;6.466;2023-01-24T03:48:24;17.48;;;11.43;;
20375;SDS011;10347;51.828;6.466;2023-01-24T03:50:51;15.77;;;11.20;;
20375;SDS011;10347;51.828;6.466;2023-01-24T03:53:36;17.23;;;10.82;;
20375;SDS011;10347;51.828;6.466;2023-01-24T03:56:02;18.38;;;11.93;;
20375;SDS011;10347;51.828;6.466;2023-01-24T03:58:29;17.63;;;11.88;;
20375;SDS011;10347;51.828;6.466;2023-01-24T04:00:56;17.88;;;11.65;;
20375;SDS011;10347;51.828;6.466;2023-01-24T04:03:22;15.07;;;10.02;;
20375;SDS011;10347;51.828;6.466;2023-01-24T04:05:48;16.77;;;11.07;;
20375;SDS011;10347;51.828;6.466;2023-01-24T04:08:14;16.23;;;10.55;;
20375;SDS011;10347;51.828;6.466;2023-01-24T04:10:41;15.43;;;10.35;;
20375;SDS011;10347;51.828;6.466;2023-01-24T04:13:07;17.55;;;11.10;;
20375;SDS011;10347;51.828;6.466;2023-01-24T04:15:34;14.88;;;10.20;;
20375;SDS011;10347;51.828;6.466;2023-01-24T04:18:00;15.82;;;10.80;;
20375;SDS011;10347;51.828;6.466;2023-01-24T04:20:27;17.33;;;11.13;;
20375;SDS011;10347;51.828;6.466;2023-01-24T04:22:54;18.42;;;12.20;;
20375;SDS011;10347;51.828;6.466;2023-01-24T04:25:20;18.73;;;12.07;;
20375;SDS011;10347;51.828;6.466;2023-01-24T04:27:46;19.73;;;12.40;;
20375;SDS011;10347;51.828;6.466;2023-01-24T04:30:13;20.05;;;12.60;;
20375;SDS011;10347;51.828;6.466;2023-01-24T04:32:40;18.55;;;11.85;;
20375;SDS011;10347;51.828;6.466;2023-01-24T04:35:06;18.75;;;11.57;;
20375;SDS011;10347;51.828;6.466;2023-01-24T04:37:32;16.88;;;11.05;;
20375;SDS011;10347;51.828;6.466;2023-01-24T04:39:58;16.13;;;10.70;;
20375;SDS011;10347;51.828;6.466;2023-01-24T04:42:26;15.60;;;11.05;;
20375;SDS011;10347;51.828;6.466;2023-01-24T04:44:52;19.98;;;12.65;;
20375;SDS011;10347;51.828;6.466;2023-01-24T04:47:17;18.30;;;11.30;;
20375;SDS011;10347;51.828;6.466;2023-01-24T04:49:43;20.10;;;11.80;;
20375;SDS011;10347;51.828;6.466;2023-01-24T04:52:11;16.90;;;11.25;;
20375;SDS011;10347;51.828;6.466;2023-01-24T04:54:40;16.85;;;11.10;;
20375;SDS011;10347;51.828;6.466;2023-01-24T04:57:06;16.65;;;11.18;;
20375;SDS011;10347;51.828;6.466;2023-01-24T04:59:32;16.35;;;10.13;;
20375;SDS011;10347;51.828;6.466;2023-01-24T05:01:58;16.85;;;10.32;;
20375;SDS011;10347;51.828;6.466;2023-01-24T05:04:23;15.93;;;10.10;;
20375;SDS011;10347;51.828;6.466;2023-01-24T05:06:49;16.75;;;10.93;;
20375;SDS011;10347;51.828;6.466;2023-01-24T05:09:15;19.10;;;12.00;;
20375;SDS011;10347;51.828;6.466;2023-01-24T05:11:41;18.58;;;11.38;;
20375;SDS011;10347;51.828;6.466;2023-01-24T05:14:10;17.65;;;11.98;;
20375;SDS011;10347;51.828;6.466;2023-01-24T05:16:36;20.75;;;12.35;;
20375;SDS011;10347;51.828;6.466;2023-01-24T05:19:02;18.67;;;11.88;;
20375;SDS011;10347;51.828;6.466;2023-01-24T05:21:28;20.05;;;11.93;;
20375;SDS011;10347;51.828;6.466;2023-01-24T05:23:53;18.45;;;12.20;;
20375;SDS011;10347;51.828;6.466;2023-01-24T05:26:20;21.25;;;12.88;;
20375;SDS011;10347;51.828;6.466;2023-01-24T05:28:47;21.73;;;13.13;;
20375;SDS011;10347;51.828;6.466;2023-01-24T05:31:13;20.45;;;12.10;;
20375;SDS011;10347;51.828;6.466;2023-01-24T05:33:39;19.60;;;12.43;;
20375;SDS011;10347;51.828;6.466;2023-01-24T05:36:07;21.30;;;12.43;;
20375;SDS011;10347;51.828;6.466;2023-01-24T05:38:34;18.30;;;11.73;;
20375;SDS011;10347;51.828;6.466;2023-01-24T05:41:01;19.70;;;12.45;;
20375;SDS011;10347;51.828;6.466;2023-01-24T05:43:28;20.73;;;12.15;;
20375;SDS011;10347;51.828;6.466;2023-01-24T05:46:01;17.30;;;10.88;;
20375;SDS011;10347;51.828;6.466;2023-01-24T05:48:28;18.33;;;12.25;;
20375;SDS011;10347;51.828;6.466;2023-01-24T05:50:57;20.85;;;11.90;;
20375;SDS011;10347;51.828;6.466;2023-01-24T05:53:23;20.77;;;11.82;;
20375;SDS011;10347;51.828;6.466;2023-01-24T05:56:00;19.63;;;12.23;;
20375;SDS011;10347;51.828;6.466;2023-01-24T05:58:27;21.73;;;12.00;;
20375;SDS011;10347;51.828;6.466;2023-01-24T06:00:55;23.63;;;14.63;;
20375;SDS011;10347;51.828;6.466;2023-01-24T06:03:21;22.02;;;12.43;;
20375;SDS011;10347;51.828;6.466;2023-01-24T06:05:47;22.33;;;12.70;;
20375;SDS011;10347;51.828;6.466;2023-01-24T06:08:14;20.02;;;13.05;;
20375;SDS011;10347;51.828;6.466;2023-01-24T06:10:41;20.23;;;12.25;;
20375;SDS011;10347;51.828;6.466;2023-01-24T06:13:06;19.27;;;12.65;;
20375;SDS011;10347;51.828;6.466;2023-01-24T06:15:32;18.02;;;12.23;;
20375;SDS011;10347;51.828;6.466;2023-01-24T06:17:58;20.33;;;12.70;;
20375;SDS011;10347;51.828;6.466;2023-01-24T06:20:23;18.33;;;11.90;;
20375;SDS011;10347;51.828;6.466;2023-01-24T06:22:53;20.77;;;11.88;;
20375;SDS011;10347;51.828;6.466;2023-01-24T06:25:25;21.35;;;12.77;;
20375;SDS011;10347;51.828;6.466;2023-01-24T06:27:51;18.00;;;10.82;;
20375;SDS011;10347;51.828;6.466;2023-01-24T06:30:18;19.23;;;11.20;;
20375;SDS011;10347;51.828;6.466;2023-01-24T06:35:16;19.60;;;12.07;;
20375;SDS011;10347;51.828;6.466;2023-01-24T06:37:56;19.98;;;11.70;;
20375;SDS011;10347;51.828;6.466;2023-01-24T06:40:23;18.90;;;11.80;;
20375;SDS011;10347;51.828;6.466;2023-01-24T06:42:50;23.23;;;13.63;;
20375;SDS011;10347;51.828;6.466;2023-01-24T06:45:16;20.48;;;12.68;;
20375;SDS011;10347;51.828;6.466;2023-01-24T06:47:43;19.35;;;11.55;;
20375;SDS011;10347;51.828;6.466;2023-01-24T06:50:41;20.35;;;12.80;;
20375;SDS011;10347;51.828;6.466;2023-01-24T06:53:00;18.42;;;11.48;;
20375;SDS011;10347;51.828;6.466;2023-01-24T06:55:25;20.17;;;11.40;;
20375;SDS011;10347;51.828;6.466;2023-01-24T06:57:58;21.90;;;13.07;;
20375;SDS011;10347;51.828;6.466;2023-01-24T07:00:25;21.05;;;11.88;;
20375;SDS011;10347;51.828;6.466;2023-01-24T07:03:04;19.40;;;12.00;;
20375;SDS011;10347;51.828;6.466;2023-01-24T07:05:31;19.73;;;12.18;;
20375;SDS011;10347;51.828;6.466;2023-01-24T07:07:58;18.55;;;10.93;;
20375;SDS011;10347;51.828;6.466;2023-01-24T07:10:24;16.90;;;11.00;;
20375;SDS011;10347;51.828;6.466;2023-01-24T07:12:50;18.08;;;11.35;;
20375;SDS011;10347;51.828;6.466;2023-01-24T07:15:15;22.10;;;13.52;;
20375;SDS011;10347;51.828;6.466;2023-01-24T07:17:41;19.98;;;11.73;;
20375;SDS011;10347;51.828;6.466;2023-01-24T07:20:08;18.23;;;10.82;;
20375;SDS011;10347;51.828;6.466;2023-01-24T07:22:36;17.98;;;11.25;;
20375;SDS011;10347;51.828;6.466;2023-01-24T07:25:02;16.98;;;10.88;;
20375;SDS011;10347;51.828;6.466;2023-01-24T07:27:28;15.98;;;10.65;;
20375;SDS011;10347;51.828;6.466;2023-01-24T07:29:53;20.10;;;11.95;;
20375;SDS011;10347;51.828;6.466;2023-01-24T07:32:19;17.95;;;11.27;;
20375;SDS011;10347;51.828;6.466;2023-01-24T07:34:45;16.58;;;10.38;;
20375;SDS011;10347;51.828;6.466;2023-01-24T07:37:10;17.48;;;10.68;;
20375;SDS011;10347;51.828;6.466;2023-01-24T07:39:36;17.55;;;10.68;;
20375;SDS011;10347;51.828;6.466;2023-01-24T07:42:01;17.63;;;10.80;;
20375;SDS011;10347;51.828;6.466;2023-01-24T07:44:27;19.33;;;12.05;;
20375;SDS011;10347;51.828;6.466;2023-01-24T07:46:52;18.88;;;11.77;;
20375;SDS011;10347;51.828;6.466;2023-01-24T07:49:18;19.27;;;11.38;;
20375;SDS011;10347;51.828;6.466;2023-01-24T07:51:44;18.60;;;11.32;;
20375;SDS011;10347;51.828;6.466;2023-01-24T07:54:13;15.80;;;10.68;;
20375;SDS011;10347;51.828;6.466;2023-01-24T07:56:39;16.35;;;10.23;;
20375;SDS011;10347;51.828;6.466;2023-01-24T07:59:04;15.65;;;10.25;;
20375;SDS011;10347;51.828;6.466;2023-01-24T08:01:30;16.92;;;10.70;;
20375;SDS011;10347;51.828;6.466;2023-01-24T08:03:56;15.32;;;8.98;;
20375;SDS011;10347;51.828;6.466;2023-01-24T08:06:23;16.58;;;10.70;;
20375;SDS011;10347;51.828;6.466;2023-01-24T08:08:49;16.48;;;10.18;;
20375;SDS011;10347;51.828;6.466;2023-01-24T08:11:14;18.67;;;11.27;;
20375;SDS011;10347;51.828;6.466;2023-01-24T08:13:42;16.83;;;9.98;;
20375;SDS011;10347;51.828;6.466;2023-01-24T08:16:12;18.60;;;10.73;;
20375;SDS011;10347;51.828;6.466;2023-01-24T08:18:38;17.30;;;10.45;;
20375;SDS011;10347;51.828;6.466;2023-01-24T08:21:03;17.98;;;10.70;;
20375;SDS011;10347;51.828;6.466;2023-01-24T08:23:30;16.80;;;10.30;;
20375;SDS011;10347;51.828;6.466;2023-01-24T08:26:02;14.52;;;9.73;;
20375;SDS011;10347;51.828;6.466;2023-01-24T08:28:28;14.10;;;9.70;;
20375;SDS011;10347;51.828;6.466;2023-01-24T08:30:57;14.68;;;9.75;;
20375;SDS011;10347;51.828;6.466;2023-01-24T08:33:23;18.95;;;9.18;;
20375;SDS011;10347;51.828;6.466;2023-01-24T08:35:49;13.73;;;9.30;;
20375;SDS011;10347;51.828;6.466;2023-01-24T08:38:15;15.00;;;9.52;;
20375;SDS011;10347;51.828;6.466;2023-01-24T08:40:41;16.17;;;9.90;;
20375;SDS011;10347;51.828;6.466;2023-01-24T08:43:07;15.55;;;9.98;;
20375;SDS011;10347;51.828;6.466;2023-01-24T08:45:33;15.25;;;9.85;;
20375;SDS011;10347;51.828;6.466;2023-01-24T08:47:59;14.98;;;8.95;;
20375;SDS011;10347;51.828;6.466;2023-01-24T08:50:25;14.13;;;9.63;;
20375;SDS011;10347;51.828;6.466;2023-01-24T08:52:53;15.95;;;9.93;;
20375;SDS011;10347;51.828;6.466;2023-01-24T08:55:20;15.50;;;10.63;;
20375;SDS011;10347;51.828;6.466;2023-01-24T08:57:46;14.65;;;9.13;;
20375;SDS011;10347;51.828;6.466;2023-01-24T09:00:12;15.07;;;9.95;;
20375;SDS011;10347;51.828;6.466;2023-01-24T09:02:38;15.38;;;9.63;;
20375;SDS011;10347;51.828;6.466;2023-01-24T09:05:04;16.55;;;10.40;;
20375;SDS011;10347;51.828;6.466;2023-01-24T09:07:31;15.98;;;10.35;;
20375;SDS011;10347;51.828;6.466;2023-01-24T09:09:56;14.65;;;10.05;;
20375;SDS011;10347;51.828;6.466;2023-01-24T09:12:22;15.48;;;10.32;;
20375;SDS011;10347;51.828;6.466;2023-01-24T09:14:47;13.02;;;9.00;;
20375;SDS011;10347;51.828;6.466;2023-01-24T09:17:13;15.23;;;10.02;;
20375;SDS011;10347;51.828;6.466;2023-01-24T09:19:38;14.20;;;9.45;;
20375;SDS011;10347;51.828;6.466;2023-01-24T09:22:04;14.32;;;9.07;;
20375;SDS011;10347;51.828;6.466;2023-01-24T09:24:29;15.68;;;9.65;;
20375;SDS011;10347;51.828;6.466;2023-01-24T09:26:55;14.77;;;9.85;;
20375;SDS011;10347;51.828;6.466;2023-01-24T09:29:20;15.52;;;9.68;;
20375;SDS011;10347;51.828;6.466;2023-01-24T09:31:47;15.05;;;9.75;;
20375;SDS011;10347;51.828;6.466;2023-01-24T09:34:13;17.13;;;10.27;;
20375;SDS011;10347;51.828;6.466;2023-01-24T09:36:39;14.70;;;9.95;;
20375;SDS011;10347;51.828;6.466;2023-01-24T09:39:04;15.45;;;9.95;;
20375;SDS011;10347;51.828;6.466;2023-01-24T09:44:07;16.15;;;10.20;;
20375;SDS011;10347;51.828;6.466;2023-01-24T09:46:58;14.88;;;9.48;;
20375;SDS011;10347;51.828;6.466;2023-01-24T09:51:58;16.00;;;10.27;;
20375;SDS011;10347;51.828;6.466;2023-01-24T09:54:34;16.50;;;10.63;;
20375;SDS011;10347;51.828;6.466;2023-01-24T09:57:24;13.50;;;9.32;;
20375;SDS011;10347;51.828;6.466;2023-01-24T10:00:30;15.73;;;10.40;;
20375;SDS011;10347;51.828;6.466;2023-01-24T10:02:59;15.55;;;9.23;;
20375;SDS011;10347;51.828;6.466;2023-01-24T10:05:28;14.98;;;9.75;;
20375;SDS011;10347;51.828;6.466;2023-01-24T10:21:39;13.57;;;8.93;;
20375;SDS011;10347;51.828;6.466;2023-01-24T10:24:28;18.10;;;10.45;;
20375;SDS011;10347;51.828;6.466;2023-01-24T10:26:57;13.70;;;9.57;;
20375;SDS011;10347;51.828;6.466;2023-01-24T10:29:27;15.15;;;9.52;;
20375;SDS011;10347;51.828;6.466;2023-01-24T10:32:00;16.00;;;9.57;;
20375;SDS011;10347;51.828;6.466;2023-01-24T10:34:39;14.82;;;9.07;;
20375;SDS011;10347;51.828;6.466;2023-01-24T10:39:47;13.05;;;8.65;;
20375;SDS011;10347;51.828;6.466;2023-01-24T10:42:28;15.13;;;9.52;;
20375;SDS011;10347;51.828;6.466;2023-01-24T10:44:57;13.75;;;9.32;;
20375;SDS011;10347;51.828;6.466;2023-01-24T10:50:16;13.93;;;9.50;;
20375;SDS011;10347;51.828;6.466;2023-01-24T10:52:43;17.40;;;10.27;;
20375;SDS011;10347;51.828;6.466;2023-01-24T10:57:59;13.63;;;8.73;;
20375;SDS011;10347;51.828;6.466;2023-01-24T11:00:42;11.95;;;8.07;;
20375;SDS011;10347;51.828;6.466;2023-01-24T11:03:28;13.48;;;8.90;;
20375;SDS011;10347;51.828;6.466;2023-01-24T11:05:57;14.25;;;9.15;;
20375;SDS011;10347;51.828;6.466;2023-01-24T11:08:31;12.85;;;8.98;;
20375;SDS011;10347;51.828;6.466;2023-01-24T11:10:59;15.30;;;9.60;;
20375;SDS011;10347;51.828;6.466;2023-01-24T11:13:38;14.23;;;8.88;;
20375;SDS011;10347;51.828;6.466;2023-01-24T11:18:32;14.07;;;9.73;;
20375;SDS011;10347;51.828;6.466;2023-01-24T11:23:33;12.18;;;8.32;;
20375;SDS011;10347;51.828;6.466;2023-01-24T11:26:00;19.35;;;10.30;;
20375;SDS011;10347;51.828;6.466;2023-01-24T11:28:31;13.90;;;8.30;;
20375;SDS011;10347;51.828;6.466;2023-01-24T11:31:00;14.85;;;9.70;;
20375;SDS011;10347;51.828;6.466;2023-01-24T11:33:54;14.77;;;9.63;;
20375;SDS011;10347;51.828;6.466;2023-01-24T11:38:59;14.10;;;9.63;;
20375;SDS011;10347;51.828;6.466;2023-01-24T11:41:54;14.05;;;9.55;;
20375;SDS011;10347;51.828;6.466;2023-01-24T11:49:46;14.77;;;10.15;;
20375;SDS011;10347;51.828;6.466;2023-01-24T12:06:16;16.00;;;9.82;;
20375;SDS011;10347;51.828;6.466;2023-01-24T12:23:01;14.65;;;9.55;;
20375;SDS011;10347;51.828;6.466;2023-01-24T12:25:42;18.42;;;10.38;;
20375;SDS011;10347;51.828;6.466;2023-01-24T12:28:12;15.25;;;9.85;;
20375;SDS011;10347;51.828;6.466;2023-01-24T12:30:44;14.07;;;9.90;;
20375;SDS011;10347;51.828;6.466;2023-01-24T12:35:42;15.55;;;10.13;;
20375;SDS011;10347;51.828;6.466;2023-01-24T12:40:46;14.63;;;10.02;;
20375;SDS011;10347;51.828;6.466;2023-01-24T12:43:23;15.23;;;9.88;;
20375;SDS011;10347;51.828;6.466;2023-01-24T12:51:26;16.73;;;10.57;;
20375;SDS011;10347;51.828;6.466;2023-01-24T12:54:07;14.95;;;10.10;;
20375;SDS011;10347;51.828;6.466;2023-01-24T12:59:22;17.27;;;10.68;;
20375;SDS011;10347;51.828;6.466;2023-01-24T13:02:01;16.33;;;10.65;;
20375;SDS011;10347;51.828;6.466;2023-01-24T13:12:29;14.15;;;9.77;;
20375;SDS011;10347;51.828;6.466;2023-01-24T13:28:52;16.63;;;10.07;;
20375;SDS011;10347;51.828;6.466;2023-01-24T13:34:17;19.05;;;10.77;;
20375;SDS011;10347;51.828;6.466;2023-01-24T13:36:46;17.20;;;9.90;;
20375;SDS011;10347;51.828;6.466;2023-01-24T13:42:21;16.35;;;10.02;;
20375;SDS011;10347;51.828;6.466;2023-01-24T13:44:49;14.60;;;9.65;;
20375;SDS011;10347;51.828;6.466;2023-01-24T13:54:58;11.95;;;8.80;;
20375;SDS011;10347;51.828;6.466;2023-01-24T13:59:58;15.43;;;9.75;;
20375;SDS011;10347;51.828;6.466;2023-01-24T14:02:39;14.20;;;9.82;;
20375;SDS011;10347;51.828;6.466;2023-01-24T14:06:11;16.25;;;10.75;;
20375;SDS011;10347;51.828;6.466;2023-01-24T14:11:06;16.38;;;10.52;;
20375;SDS011;10347;51.828;6.466;2023-01-24T14:21:49;17.42;;;10.98;;
20375;SDS011;10347;51.828;6.466;2023-01-24T14:26:55;15.25;;;10.70;;
20375;SDS011;10347;51.828;6.466;2023-01-24T14:29:28;16.63;;;10.57;;
20375;SDS011;10347;51.828;6.466;2023-01-24T14:32:02;15.30;;;9.73;;
20375;SDS011;10347;51.828;6.466;2023-01-24T14:34:33;15.60;;;10.23;;
20375;SDS011;10347;51.828;6.466;2023-01-24T14:37:09;18.58;;;10.57;;
20375;SDS011;10347;51.828;6.466;2023-01-24T14:39:35;19.05;;;11.00;;
20375;SDS011;10347;51.828;6.466;2023-01-24T14:42:02;16.40;;;10.57;;
20375;SDS011;10347;51.828;6.466;2023-01-24T14:44:34;15.00;;;10.00;;
20375;SDS011;10347;51.828;6.466;2023-01-24T14:47:04;17.88;;;10.77;;
20375;SDS011;10347;51.828;6.466;2023-01-24T14:49:45;16.42;;;10.63;;
20375;SDS011;10347;51.828;6.466;2023-01-24T14:52:22;15.88;;;10.18;;
20375;SDS011;10347;51.828;6.466;2023-01-24T14:54:51;17.42;;;10.52;;
20375;SDS011;10347;51.828;6.466;2023-01-24T14:57:29;14.90;;;10.15;;
20375;SDS011;10347;51.828;6.466;2023-01-24T15:00:03;14.63;;;9.63;;
20375;SDS011;10347;51.828;6.466;2023-01-24T15:02:36;15.93;;;10.68;;
20375;SDS011;10347;51.828;6.466;2023-01-24T15:05:22;17.85;;;10.95;;
20375;SDS011;10347;51.828;6.466;2023-01-24T15:07:49;15.32;;;10.50;;
20375;SDS011;10347;51.828;6.466;2023-01-24T15:10:15;14.50;;;9.40;;
20375;SDS011;10347;51.828;6.466;2023-01-24T15:12:46;16.58;;;10.43;;
20375;SDS011;10347;51.828;6.466;2023-01-24T15:15:17;17.88;;;10.60;;
20375;SDS011;10347;51.828;6.466;2023-01-24T15:17:47;16.40;;;10.98;;
20375;SDS011;10347;51.828;6.466;2023-01-24T15:20:18;17.50;;;10.68;;
20375;SDS011;10347;51.828;6.466;2023-01-24T15:22:49;15.10;;;9.98;;
20375;SDS011;10347;51.828;6.466;2023-01-24T15:25:20;14.70;;;9.70;;
20375;SDS011;10347;51.828;6.466;2023-01-24T15:27:49;14.73;;;9.82;;
20375;SDS011;10347;51.828;6.466;2023-01-24T15:30:21;17.00;;;11.13;;
20375;SDS011;10347;51.828;6.466;2023-01-24T15:43:26;14.20;;;10.00;;
20375;SDS011;10347;51.828;6.466;2023-01-24T15:54:31;14.43;;;9.05;;
20375;SDS011;10347;51.828;6.466;2023-01-24T15:56:58;14.52;;;9.40;;
20375;SDS011;10347;51.828;6.466;2023-01-24T15:59:26;14.23;;;9.38;;
20375;SDS011;10347;51.828;6.466;2023-01-24T16:01:53;14.43;;;9.55;;
20375;SDS011;10347;51.828;6.466;2023-01-24T16:04:20;13.93;;;9.85;;
20375;SDS011;10347;51.828;6.466;2023-01-24T16:06:47;14.38;;;9.02;;
20375;SDS011;10347;51.828;6.466;2023-01-24T16:09:13;13.40;;;9.13;;
20375;SDS011;10347;51.828;6.466;2023-01-24T16:11:39;13.20;;;9.43;;
20375;SDS011;10347;51.828;6.466;2023-01-24T16:14:17;15.65;;;9.88;;
20375;SDS011;10347;51.828;6.466;2023-01-24T16:16:52;13.75;;;9.75;;
20375;SDS011;10347;51.828;6.466;2023-01-24T16:19:20;16.17;;;10.07;;
20375;SDS011;10347;51.828;6.466;2023-01-24T16:21:48;12.98;;;9.05;;
20375;SDS011;10347;51.828;6.466;2023-01-24T16:24:14;12.98;;;8.82;;
20375;SDS011;10347;51.828;6.466;2023-01-24T16:26:41;12.60;;;8.60;;
20375;SDS011;10347;51.828;6.466;2023-01-24T16:29:15;15.50;;;9.73;;
20375;SDS011;10347;51.828;6.466;2023-01-24T16:31:44;12.98;;;9.32;;
20375;SDS011;10347;51.828;6.466;2023-01-24T16:34:11;17.35;;;10.15;;
20375;SDS011;10347;51.828;6.466;2023-01-24T16:36:36;14.70;;;9.88;;
20375;SDS011;10347;51.828;6.466;2023-01-24T16:39:03;14.60;;;9.50;;
20375;SDS011;10347;51.828;6.466;2023-01-24T16:41:29;16.08;;;10.70;;
20375;SDS011;10347;51.828;6.466;2023-01-24T16:43:55;15.65;;;9.68;;
20375;SDS011;10347;51.828;6.466;2023-01-24T16:46:21;13.25;;;9.23;;
20375;SDS011;10347;51.828;6.466;2023-01-24T16:48:47;13.75;;;9.90;;
20375;SDS011;10347;51.828;6.466;2023-01-24T16:51:13;15.55;;;9.90;;
20375;SDS011;10347;51.828;6.466;2023-01-24T16:53:40;15.35;;;10.32;;
20375;SDS011;10347;51.828;6.466;2023-01-24T16:56:05;13.95;;;9.82;;
20375;SDS011;10347;51.828;6.466;2023-01-24T16:58:31;16.90;;;10.07;;
20375;SDS011;10347;51.828;6.466;2023-01-24T17:00:57;11.63;;;8.48;;
20375;SDS011;10347;51.828;6.466;2023-01-24T17:03:23;12.40;;;8.90;;
20375;SDS011;10347;51.828;6.466;2023-01-24T17:05:48;11.52;;;8.25;;
20375;SDS011;10347;51.828;6.466;2023-01-24T17:08:14;10.40;;;7.82;;
20375;SDS011;10347;51.828;6.466;2023-01-24T17:10:40;13.40;;;8.85;;
20375;SDS011;10347;51.828;6.466;2023-01-24T17:13:07;14.65;;;9.55;;
20375;SDS011;10347;51.828;6.466;2023-01-24T17:15:37;13.60;;;9.32;;
20375;SDS011;10347;51.828;6.466;2023-01-24T17:18:03;12.32;;;8.63;;
20375;SDS011;10347;51.828;6.466;2023-01-24T17:20:29;10.50;;;7.97;;
20375;SDS011;10347;51.828;6.466;2023-01-24T17:22:56;12.63;;;8.90;;
20375;SDS011;10347;51.828;6.466;2023-01-24T17:25:24;9.75;;;7.57;;
20375;SDS011;10347;51.828;6.466;2023-01-24T17:27:50;12.57;;;8.85;;